createdAt,value
2018-12-16T00:02:53.172Z,96.80
2018-12-16T00:05:28.199Z,97.00
2018-12-16T00:08:02.296Z,96.90
2018-12-16T00:10:37.408Z,97.00
2018-12-16T00:13:12.196Z,96.80
2018-12-16T00:15:46.747Z,97.20
2018-12-16T00:18:24.801Z,97.20
2018-12-16T00:20:59.074Z,97.10
2018-12-16T00:23:33.097Z,97.10
2018-12-16T00:26:07.260Z,96.60
2018-12-16T00:28:41.365Z,96.70
2018-12-16T00:31:15.735Z,96.90
2018-12-16T00:33:49.780Z,97.10
2018-12-16T00:36:24.083Z,97.20
2018-12-16T00:38:58.251Z,97.20
2018-12-16T00:41:32.367Z,97.10
2018-12-16T00:44:07.227Z,97.20
2018-12-16T00:46:41.355Z,97.10
2018-12-16T00:49:19.163Z,97.20
2018-12-16T00:51:53.477Z,97.10
2018-12-16T00:54:29.092Z,97.00
2018-12-16T00:57:07.492Z,96.70
2018-12-16T00:59:41.659Z,97.00
2018-12-16T01:02:20.613Z,96.60
2018-12-16T01:07:27.643Z,96.90
2018-12-16T01:10:01.703Z,96.80
2018-12-16T01:12:35.979Z,96.90
2018-12-16T01:15:14.766Z,96.80
2018-12-16T01:17:49.023Z,96.70
2018-12-16T01:20:22.910Z,96.80
2018-12-16T01:22:57.301Z,96.80
2018-12-16T01:25:31.382Z,97.10
2018-12-16T01:28:05.448Z,97.10
2018-12-16T01:30:40.235Z,97.00
2018-12-16T01:33:14.396Z,96.90
2018-12-16T01:35:48.456Z,96.80
2018-12-16T01:38:22.416Z,96.70
2018-12-16T01:40:56.632Z,96.60
2018-12-16T01:43:30.959Z,96.80
2018-12-16T01:46:05.070Z,96.70
2018-12-16T01:48:38.974Z,96.70
2018-12-16T01:51:13.023Z,96.30
2018-12-16T01:53:51.403Z,95.80
2018-12-16T01:56:29.229Z,95.60
2018-12-16T01:59:03.102Z,95.80
2018-12-16T02:01:39.135Z,96.40
2018-12-16T02:04:13.329Z,96.60
2018-12-16T02:06:47.427Z,96.80
2018-12-16T02:09:21.392Z,96.90
2018-12-16T02:11:55.587Z,96.90
2018-12-16T02:14:29.955Z,96.80
2018-12-16T02:17:03.783Z,96.70
2018-12-16T02:19:38.160Z,96.80
2018-12-16T02:22:12.394Z,96.60
2018-12-16T02:24:46.729Z,96.50
2018-12-16T02:27:20.722Z,96.40
2018-12-16T02:29:58.710Z,96.60
2018-12-16T02:32:32.748Z,96.20
2018-12-16T02:35:07.613Z,96.60
2018-12-16T02:37:41.498Z,96.60
2018-12-16T02:40:15.637Z,96.60
2018-12-16T02:42:49.665Z,96.60
2018-12-16T02:45:23.955Z,96.60
2018-12-16T02:47:58.771Z,96.60
2018-12-16T02:50:32.709Z,96.70
2018-12-16T02:53:07.584Z,96.70
2018-12-16T02:55:42.240Z,96.60
2018-12-16T02:58:16.107Z,96.60
2018-12-16T03:00:50.262Z,96.70
2018-12-16T03:03:24.277Z,96.80
2018-12-16T03:05:59.006Z,96.70
2018-12-16T03:08:33.045Z,96.80
2018-12-16T03:18:45.509Z,96.80
2018-12-16T03:26:25.191Z,96.70
2018-12-16T03:28:59.257Z,96.90
2018-12-16T03:31:33.451Z,97.20
2018-12-16T03:34:08.282Z,97.40
2018-12-16T03:36:42.549Z,97.50
2018-12-16T03:39:16.827Z,97.50
2018-12-16T03:41:51.180Z,97.20
2018-12-16T03:44:25.200Z,97.00
2018-12-16T03:46:59.202Z,97.30
2018-12-16T03:49:40.218Z,97.20
2018-12-16T03:52:14.079Z,97.30
2018-12-16T03:54:52.304Z,97.20
2018-12-16T03:57:26.757Z,97.10
2018-12-16T04:00:00.807Z,97.30
2018-12-16T04:02:35.038Z,97.30
2018-12-16T04:05:09.379Z,97.50
2018-12-16T04:07:43.475Z,97.70
2018-12-16T04:10:17.767Z,97.70
2018-12-16T04:12:53.240Z,97.20
2018-12-16T04:15:27.231Z,97.40
2018-12-16T04:18:01.420Z,97.50
2018-12-16T04:20:35.496Z,97.30
2018-12-16T04:23:09.721Z,97.60
2018-12-16T04:25:47.810Z,97.30
2018-12-16T04:28:21.712Z,97.30
2018-12-16T04:30:56.501Z,97.20
2018-12-16T04:33:30.531Z,97.50
2018-12-16T04:36:04.525Z,97.60
2018-12-16T04:38:38.514Z,97.70
2018-12-16T04:41:17.172Z,97.50
2018-12-16T04:43:55.803Z,97.40
2018-12-16T04:46:29.812Z,97.50
2018-12-16T04:49:04.613Z,97.70
2018-12-16T04:51:39.390Z,97.80
2018-12-16T04:54:13.476Z,97.60
2018-12-16T04:56:47.462Z,97.30
2018-12-16T04:59:21.465Z,97.60
2018-12-16T05:01:55.615Z,98.00
2018-12-16T05:04:29.831Z,98.10
2018-12-16T05:07:03.942Z,98.30
2018-12-16T05:09:38.063Z,98.20
2018-12-16T05:12:12.184Z,98.40
2018-12-16T05:14:46.188Z,98.20
2018-12-16T05:17:20.435Z,98.30
2018-12-16T05:19:54.493Z,98.10
2018-12-16T05:22:29.634Z,98.20
2018-12-16T05:25:04.658Z,98.30
2018-12-16T05:30:12.073Z,98.30
2018-12-16T05:32:46.731Z,98.30
2018-12-16T05:35:20.703Z,98.30
2018-12-16T05:37:54.859Z,98.40
2018-12-16T05:40:29.272Z,98.50
2018-12-16T05:43:03.971Z,98.60
2018-12-16T05:45:37.980Z,98.60
2018-12-16T05:48:12.089Z,98.50
2018-12-16T05:50:46.437Z,98.40
2018-12-16T05:53:20.330Z,98.30
2018-12-16T05:55:58.360Z,98.40
2018-12-16T05:58:36.586Z,98.30
2018-12-16T06:01:10.528Z,98.40
2018-12-16T06:03:44.759Z,98.10
2018-12-16T06:06:18.711Z,98.30
2018-12-16T06:08:52.631Z,98.20
2018-12-16T06:11:26.740Z,98.60
2018-12-16T06:14:00.599Z,98.70
2018-12-16T06:16:35.820Z,98.60
2018-12-16T06:19:10.695Z,98.40
2018-12-16T06:21:44.831Z,98.40
2018-12-16T06:24:22.805Z,98.40
2018-12-16T06:26:56.748Z,98.50
2018-12-16T06:32:04.129Z,98.50
2018-12-16T06:34:38.022Z,98.50
2018-12-16T06:37:11.871Z,98.50
2018-12-16T06:39:49.761Z,98.40
2018-12-16T06:42:23.740Z,98.20
2018-12-16T06:44:58.484Z,98.20
2018-12-16T06:47:32.748Z,98.30
2018-12-16T06:50:08.144Z,98.20
2018-12-16T06:52:42.298Z,98.30
2018-12-16T06:55:16.413Z,98.30
2018-12-16T06:57:50.472Z,98.40
2018-12-16T07:00:25.174Z,98.50
2018-12-16T07:02:59.701Z,98.50
2018-12-16T07:05:33.702Z,98.50
2018-12-16T07:08:08.330Z,98.60
2018-12-16T07:10:42.565Z,98.60
2018-12-16T07:13:17.351Z,98.50
2018-12-16T07:15:51.849Z,98.30
2018-12-16T07:18:25.818Z,98.10
2018-12-16T07:21:00.163Z,98.00
2018-12-16T07:23:34.279Z,98.20
2018-12-16T07:26:08.557Z,98.50
2018-12-16T07:28:43.554Z,98.60
2018-12-16T07:31:17.405Z,98.50
2018-12-16T07:38:57.372Z,97.30
2018-12-16T07:41:31.297Z,97.10
2018-12-16T07:44:05.463Z,97.20
2018-12-16T07:46:39.470Z,96.80
2018-12-16T07:49:13.730Z,97.40
2018-12-16T07:51:47.995Z,97.30
2018-12-16T07:54:22.203Z,97.60
2018-12-16T07:56:56.548Z,97.80
2018-12-16T07:59:31.256Z,97.20
2018-12-16T08:02:05.431Z,97.00
2018-12-16T08:04:39.380Z,97.10
2018-12-16T08:07:13.628Z,97.20
2018-12-16T08:09:48.419Z,97.20
2018-12-16T08:12:22.629Z,96.90
2018-12-16T08:14:56.843Z,96.90
2018-12-16T08:17:31.540Z,97.10
2018-12-16T08:20:06.859Z,97.00
2018-12-16T08:22:41.005Z,96.90
2018-12-16T08:25:15.316Z,96.60
2018-12-16T08:27:53.457Z,96.20
2018-12-16T08:30:27.521Z,96.50
2018-12-16T08:33:05.687Z,96.90
2018-12-16T08:35:39.975Z,97.40
2018-12-16T08:38:14.283Z,98.00
2018-12-16T08:40:48.708Z,97.40
2018-12-16T08:43:22.909Z,97.10
2018-12-16T08:45:56.843Z,97.80
2018-12-16T08:48:30.995Z,98.10
2018-12-16T08:51:09.148Z,96.40
2018-12-16T08:53:44.034Z,96.50
2018-12-16T08:56:17.990Z,96.20
2018-12-16T08:58:52.265Z,95.60
2018-12-16T09:01:26.095Z,95.90
2018-12-16T09:04:00.836Z,95.60
2018-12-16T09:06:35.995Z,95.50
2018-12-16T09:09:11.309Z,95.40
2018-12-16T09:11:45.868Z,95.00
2018-12-16T09:14:19.959Z,93.70
2018-12-16T09:16:54.108Z,93.00
2018-12-16T09:19:28.192Z,93.00
2018-12-16T09:22:03.179Z,92.70
2018-12-16T09:24:37.651Z,93.00
2018-12-16T09:27:12.416Z,93.10
2018-12-16T09:29:46.573Z,93.10
2018-12-16T09:32:24.541Z,92.80
2018-12-16T09:34:58.532Z,92.90
2018-12-16T09:37:32.658Z,93.30
2018-12-16T09:40:08.028Z,93.70
2018-12-16T09:55:29.946Z,92.20
2018-12-16T09:58:04.029Z,92.20
2018-12-16T10:00:38.264Z,91.30
2018-12-16T10:03:14.360Z,91.10
2018-12-16T10:05:52.732Z,91.00
2018-12-16T10:08:28.110Z,90.70
2018-12-16T10:11:02.651Z,95.40
2018-12-16T10:13:36.743Z,95.90
2018-12-16T10:16:11.103Z,92.70
2018-12-16T10:18:45.215Z,91.90
2018-12-16T10:21:19.453Z,91.00
2018-12-16T10:23:53.453Z,91.40
2018-12-16T10:26:27.598Z,91.20
2018-12-16T10:29:05.693Z,90.80
2018-12-16T10:31:39.907Z,90.40
2018-12-16T10:34:14.077Z,91.60
2018-12-16T10:36:48.205Z,91.10
2018-12-16T10:39:23.435Z,89.40
2018-12-16T10:41:58.181Z,91.20
2018-12-16T10:44:32.599Z,86.20
2018-12-16T10:47:07.590Z,83.90
2018-12-16T10:49:41.618Z,86.40
2018-12-16T10:52:15.932Z,84.40
2018-12-16T11:02:29.679Z,87.00
2018-12-16T11:05:04.555Z,85.00
2018-12-16T11:07:38.774Z,85.00
2018-12-16T11:10:14.684Z,84.60
2018-12-16T11:12:49.078Z,84.30
2018-12-16T11:15:23.841Z,85.30
2018-12-16T11:17:58.686Z,84.50
2018-12-16T11:20:36.800Z,84.10
2018-12-16T11:23:11.886Z,85.80
2018-12-16T11:25:52.091Z,84.20
2018-12-16T11:28:30.998Z,84.40
2018-12-16T11:31:05.237Z,81.50
2018-12-16T11:33:39.521Z,82.70
2018-12-16T11:36:14.388Z,82.60
2018-12-16T11:38:48.476Z,82.30
2018-12-16T11:41:22.589Z,83.20
2018-12-16T11:43:56.616Z,82.20
2018-12-16T11:46:31.157Z,81.70
2018-12-16T11:49:06.074Z,82.80
2018-12-16T11:51:40.564Z,83.70
2018-12-16T11:54:14.897Z,84.90
2018-12-16T11:56:49.645Z,83.60
2018-12-16T11:59:23.638Z,82.80
2018-12-16T12:01:57.779Z,83.90
2018-12-16T12:04:32.372Z,83.30
2018-12-16T12:07:07.243Z,85.50
2018-12-16T12:09:41.229Z,84.30
2018-12-16T12:12:15.430Z,85.00
2018-12-16T12:14:49.532Z,85.80
2018-12-16T12:17:23.631Z,84.30
2018-12-16T12:19:57.646Z,86.20
2018-12-16T12:22:32.411Z,84.80
2018-12-16T12:25:06.906Z,91.50
2018-12-16T12:27:41.348Z,85.90
2018-12-16T12:30:15.811Z,85.80
2018-12-16T12:32:50.639Z,86.30
2018-12-16T12:35:25.660Z,87.30
2018-12-16T12:38:01.180Z,86.10
2018-12-16T12:40:39.362Z,86.70
2018-12-16T12:43:13.450Z,85.80
2018-12-16T12:45:48.769Z,87.60
2018-12-16T12:48:22.892Z,86.50
2018-12-16T12:50:56.998Z,87.10
2018-12-16T12:53:31.092Z,87.80
2018-12-16T12:56:06.133Z,87.20
2018-12-16T12:58:40.380Z,88.40
2018-12-16T13:01:18.423Z,88.10
2018-12-16T13:03:52.367Z,88.60
2018-12-16T13:06:26.756Z,88.90
2018-12-16T13:09:01.579Z,90.00
2018-12-16T13:11:35.632Z,90.70
2018-12-16T13:14:09.696Z,90.20
2018-12-16T13:16:43.949Z,90.60
2018-12-16T13:19:19.120Z,90.30
2018-12-16T13:21:58.523Z,90.70
2018-12-16T13:24:33.432Z,91.30
2018-12-16T13:27:07.587Z,91.30
2018-12-16T13:29:41.896Z,91.30
2018-12-16T13:32:16.788Z,91.20
2018-12-16T13:34:51.010Z,91.50
2018-12-16T13:37:29.358Z,91.30
2018-12-16T13:40:04.277Z,91.70
2018-12-16T13:42:38.611Z,91.70
2018-12-16T13:45:13.648Z,91.90
2018-12-16T13:47:48.660Z,91.90
2018-12-16T13:50:26.663Z,92.20
2018-12-16T13:53:01.582Z,92.20
2018-12-16T13:55:40.841Z,92.10
2018-12-16T13:58:12.194Z,92.20
2018-12-16T14:00:47.112Z,92.90
2018-12-16T14:03:25.215Z,92.90
2018-12-16T14:05:59.888Z,93.00
2018-12-16T14:08:34.338Z,93.10
2018-12-16T14:11:09.300Z,92.70
2018-12-16T14:13:43.380Z,93.00
2018-12-16T14:16:17.472Z,93.00
2018-12-16T14:18:51.702Z,93.40
2018-12-16T14:21:25.939Z,93.20
2018-12-16T14:24:04.312Z,93.70
2018-12-16T14:26:42.893Z,93.80
2018-12-16T14:29:17.913Z,93.10
2018-12-16T14:31:52.034Z,93.30
2018-12-16T14:34:26.124Z,94.30
2018-12-16T14:37:01.124Z,94.60
2018-12-16T14:39:36.176Z,94.20
2018-12-16T14:42:10.481Z,94.20
2018-12-16T14:44:45.441Z,94.40
2018-12-16T14:47:19.723Z,94.80
2018-12-16T14:49:54.597Z,95.00
2018-12-16T14:52:28.711Z,95.10
2018-12-16T14:55:08.441Z,94.90
2018-12-16T14:57:43.165Z,96.30
2018-12-16T15:00:18.199Z,95.90
2018-12-16T15:02:56.339Z,96.10
2018-12-16T15:05:30.366Z,96.50
2018-12-16T15:08:04.761Z,96.90
2018-12-16T15:10:39.678Z,96.90
2018-12-16T15:13:13.781Z,97.20
2018-12-16T15:15:47.998Z,97.40
2018-12-16T15:18:26.833Z,97.40
2018-12-16T15:21:01.292Z,97.60
2018-12-16T15:23:37.369Z,97.60
2018-12-16T15:26:12.960Z,97.50
2018-12-16T15:28:47.403Z,97.70
2018-12-16T15:31:21.606Z,97.50
2018-12-16T15:33:55.591Z,97.60
2018-12-16T15:36:33.684Z,97.40
2018-12-16T15:39:08.974Z,97.60
2018-12-16T15:41:43.100Z,97.60
2018-12-16T15:44:17.140Z,97.50
2018-12-16T15:46:56.077Z,97.30
2018-12-16T15:49:31.087Z,97.60
2018-12-16T15:52:05.693Z,97.50
2018-12-16T15:54:41.183Z,97.50
2018-12-16T15:57:15.763Z,97.50
2018-12-16T15:59:50.126Z,97.60
2018-12-16T16:02:24.957Z,97.90
2018-12-16T16:04:59.925Z,98.00
2018-12-16T16:07:35.628Z,97.70
2018-12-16T16:10:10.422Z,98.00
2018-12-16T16:12:49.227Z,97.80
2018-12-16T16:15:23.527Z,98.10
2018-12-16T16:17:58.221Z,98.00
2018-12-16T16:20:32.596Z,98.10
2018-12-16T16:23:06.965Z,98.20
2018-12-16T16:25:41.652Z,98.20
2018-12-16T16:28:15.723Z,98.10
2018-12-16T16:30:54.414Z,98.20
2018-12-16T16:33:29.115Z,98.40
2018-12-16T16:36:04.031Z,98.50
2018-12-16T16:38:38.435Z,98.30
2018-12-16T16:41:12.495Z,98.40
2018-12-16T16:43:46.669Z,98.40
2018-12-16T16:46:21.708Z,98.60
2018-12-16T16:48:56.078Z,98.40
2018-12-16T16:51:30.721Z,98.30
2018-12-16T16:54:05.094Z,98.00
2018-12-16T16:56:39.886Z,98.10
2018-12-16T16:59:14.283Z,98.10
2018-12-16T17:01:49.000Z,98.30
2018-12-16T17:04:23.690Z,97.90
2018-12-16T17:06:57.770Z,98.10
2018-12-16T17:09:33.353Z,98.50
2018-12-16T17:12:12.070Z,98.40
2018-12-16T17:14:47.120Z,98.40
2018-12-16T17:17:21.318Z,98.30
2018-12-16T17:19:56.426Z,98.70
2018-12-16T17:22:31.455Z,98.80
2018-12-16T17:25:08.800Z,98.50
2018-12-16T17:27:43.705Z,98.60
2018-12-16T17:30:18.705Z,98.90
2018-12-16T17:32:52.887Z,98.90
2018-12-16T17:35:28.154Z,99.10
2018-12-16T17:38:03.165Z,99.10
2018-12-16T17:40:38.196Z,99.00
2018-12-16T17:43:13.132Z,98.90
2018-12-16T17:45:47.633Z,99.10
2018-12-16T17:48:21.714Z,99.40
2018-12-16T17:50:56.839Z,99.00
2018-12-16T17:53:31.665Z,98.50
2018-12-16T17:56:06.303Z,98.80
2018-12-16T17:58:41.155Z,98.50
2018-12-16T18:01:16.120Z,98.90
2018-12-16T18:03:50.184Z,97.90
2018-12-16T18:06:24.175Z,98.30
2018-12-16T18:08:58.465Z,98.70
2018-12-16T18:11:37.437Z,98.50
2018-12-16T18:14:16.382Z,98.40
2018-12-16T18:16:50.720Z,98.40
2018-12-16T18:19:25.033Z,98.30
2018-12-16T18:22:01.397Z,98.60
2018-12-16T18:24:36.342Z,98.20
2018-12-16T18:27:11.248Z,98.20
2018-12-16T18:29:46.253Z,98.40
2018-12-16T18:32:20.429Z,98.50
2018-12-16T18:34:58.566Z,98.40
2018-12-16T18:37:33.585Z,98.30
2018-12-16T18:40:08.541Z,98.40
2018-12-16T18:42:42.998Z,97.60
2018-12-16T18:45:17.175Z,98.10
2018-12-16T18:47:51.420Z,98.70
2018-12-16T18:50:25.757Z,98.40
2018-12-16T18:52:59.917Z,98.60
2018-12-16T18:55:34.843Z,98.80
2018-12-16T18:58:13.431Z,98.60
2018-12-16T19:00:48.396Z,99.90
2018-12-16T19:03:23.221Z,99.00
2018-12-16T19:05:57.443Z,98.70
2018-12-16T19:08:31.861Z,98.30
2018-12-16T19:11:06.891Z,98.60
2018-12-16T19:13:41.095Z,98.60
2018-12-16T19:16:15.154Z,98.50
2018-12-16T19:18:49.790Z,98.60
2018-12-16T19:21:24.215Z,98.90
2018-12-16T19:23:58.366Z,98.60
2018-12-16T19:26:36.770Z,98.70
2018-12-16T19:29:11.704Z,98.60
2018-12-16T19:31:46.758Z,98.60
2018-12-16T19:34:21.157Z,98.70
2018-12-16T19:36:55.264Z,98.50
2018-12-16T19:39:33.768Z,98.90
2018-12-16T19:42:08.690Z,98.50
2018-12-16T19:44:42.859Z,98.40
2018-12-16T19:47:21.006Z,98.60
2018-12-16T19:49:55.087Z,99.90
2018-12-16T19:52:29.220Z,98.90
2018-12-16T19:55:03.606Z,98.80
2018-12-16T19:57:37.931Z,98.80
2018-12-16T20:00:12.468Z,98.90
2018-12-16T20:02:46.791Z,98.90
2018-12-16T20:05:23.664Z,98.80
2018-12-16T20:07:58.384Z,98.70
2018-12-16T20:10:33.291Z,98.70
2018-12-16T20:13:08.196Z,98.90
2018-12-16T20:15:43.216Z,99.00
2018-12-16T20:18:17.499Z,98.60
2018-12-16T20:20:56.725Z,99.10
2018-12-16T20:23:31.407Z,98.70
2018-12-16T20:26:06.095Z,98.80
2018-12-16T20:28:41.023Z,98.90
2018-12-16T20:31:16.292Z,98.80
2018-12-16T20:33:51.441Z,99.10
2018-12-16T20:36:26.333Z,98.80
2018-12-16T20:39:00.461Z,99.00
2018-12-16T20:41:35.602Z,99.10
2018-12-16T20:44:11.414Z,99.20
2018-12-16T20:46:46.445Z,99.00
2018-12-16T20:49:20.901Z,99.10
2018-12-16T20:51:56.045Z,99.10
2018-12-16T20:54:31.979Z,98.80
2018-12-16T20:57:06.719Z,99.10
2018-12-16T20:59:41.582Z,99.20
2018-12-16T21:02:16.765Z,99.20
2018-12-16T21:04:56.052Z,99.20
2018-12-16T21:07:31.213Z,99.30
2018-12-16T21:10:10.334Z,99.40
2018-12-16T21:12:49.352Z,99.50
2018-12-16T21:15:29.375Z,99.40
2018-12-16T21:18:08.357Z,99.50
2018-12-16T21:20:47.361Z,99.60
2018-12-16T21:23:22.482Z,99.70
2018-12-16T21:25:57.757Z,99.90
2018-12-16T21:28:33.035Z,99.90
2018-12-16T21:31:08.070Z,99.90
2018-12-16T21:33:43.070Z,99.80
2018-12-16T21:36:18.180Z,99.70
2018-12-16T21:38:52.356Z,99.90
2018-12-16T21:41:26.607Z,99.90
2018-12-16T21:44:01.442Z,99.90
2018-12-16T21:46:36.795Z,99.90
2018-12-16T21:49:11.816Z,99.90
2018-12-16T21:51:46.770Z,99.90
2018-12-16T21:54:21.831Z,99.90
2018-12-16T21:56:55.866Z,99.90
2018-12-16T21:59:31.041Z,99.90
2018-12-16T22:02:06.212Z,99.90
2018-12-16T22:04:40.294Z,99.90
2018-12-16T22:07:15.515Z,99.90
2018-12-16T22:09:51.322Z,99.90
2018-12-16T22:12:25.755Z,99.90
2018-12-16T22:15:00.030Z,99.90
2018-12-16T22:17:35.738Z,99.90
2018-12-16T22:20:10.457Z,99.90
2018-12-16T22:22:45.431Z,99.90
2018-12-16T22:25:19.735Z,99.90
2018-12-16T22:27:54.753Z,99.90
2018-12-16T22:30:29.237Z,99.90
2018-12-16T22:33:04.585Z,99.90
2018-12-16T22:35:39.595Z,99.90
2018-12-16T22:38:14.877Z,99.90
2018-12-16T22:40:49.795Z,99.90
2018-12-16T22:43:25.095Z,99.90
2018-12-16T22:45:59.885Z,99.90
2018-12-16T22:48:38.020Z,99.90
2018-12-16T22:51:13.277Z,99.90
2018-12-16T22:53:47.499Z,99.90
2018-12-16T22:56:21.501Z,99.90
2018-12-16T22:58:56.520Z,99.90
2018-12-16T23:01:31.793Z,99.90
2018-12-16T23:04:10.128Z,99.90
2018-12-16T23:06:44.089Z,99.90
2018-12-16T23:09:18.710Z,99.90
2018-12-16T23:11:52.885Z,99.90
2018-12-16T23:14:27.310Z,99.90
2018-12-16T23:17:05.614Z,99.90
2018-12-16T23:19:39.728Z,99.90
2018-12-16T23:22:14.428Z,99.90
2018-12-16T23:24:53.323Z,99.90
2018-12-16T23:27:31.288Z,99.90
2018-12-16T23:30:10.104Z,99.90
2018-12-16T23:32:48.856Z,99.90
2018-12-16T23:35:23.649Z,99.90
2018-12-16T23:37:57.691Z,99.90
2018-12-16T23:40:38.953Z,99.90
2018-12-16T23:43:13.718Z,99.90
2018-12-16T23:45:48.140Z,99.90
2018-12-16T23:48:22.362Z,99.90
2018-12-16T23:50:56.423Z,99.90
2018-12-16T23:53:30.464Z,99.90
2018-12-16T23:56:04.724Z,99.90
2018-12-16T23:58:38.694Z,99.90
